Stations météo

Publicité
Mende, France (7554): Température de l'air & dewpoint: 11.07.2018 06:00:00 - 17.07.2018 06:00:00 (CEST)Mende, France (7554): Température de l'air 5cm: 11.07.2018 06:00:00 - 17.07.2018 06:00:00 (CEST)Mende, France (7554): Température de l'air -20cm & Température de l'air -100cm: 11.07.2018 06:00:00 - 17.07.2018 06:00:00 (CEST)Mende, France (7554): Vitesse du vent & gusts: 11.07.2018 06:00:00 - 17.07.2018 06:00:00 (CEST)Mende, France (7554): Direction du vent: 11.07.2018 06:00:00 - 17.07.2018 06:00:00 (CEST)Mende, France (7554): visibility: 11.07.2018 06:00:00 - 17.07.2018 06:00:00 (CEST)Mende, France (7554): Ensoleillement: 11.07.2018 06:00:00 - 17.07.2018 06:00:00 (CEST)Mende, France (7554): Quantités de précipitations: 11.07.2018 06:00:00 - 17.07.2018 06:00:00 (CEST)
Date & Time tt [°C] td [°C] tt 5cm [°C] tt -20cm [°C] tt -100cm [°C] ff [km/h] ff [knt] fx [km/h] fx [knt] dd vv [km] sd [min] rr [mm]
17.07.2018 06:00:00 12,9 12,1 11,4 20,3 17,5 8 4 13 7 WNW 0,3 0 0,0
17.07.2018 05:00:00 13,3 12,4 12,1 20,4 17,5 9 5 16 9 W 20 0 0,0
17.07.2018 04:00:00 13,2 11,9 12,2 20,5 17,6 5 3 14 8 WNW 13 0 0,0
17.07.2018 03:00:00 13,6 12,5 12,4 20,6 17,6 5 3 16 8 W 20 0 0,0
17.07.2018 02:00:00 13,4 12,5 12,4 20,7 17,6 9 5 13 7 W 18 0 0,2
17.07.2018 01:00:00 13,5 12,4 12,0 20,8 17,5 2 1 21 11 W 20 0 0,0
17.07.2018 00:00:00 13,9 12,9 12,2 20,8 17,6 11 6 21 11 W 20 0 0,0
16.07.2018 23:00:00 14,4 13,4 13,3 20,9 17,6 6 4 18 10 WNW 0,9 0 0,0
16.07.2018 22:00:00 15,2 14,1 14,0 21,0 17,6 5 3 13 7 W 8 2 0,0
16.07.2018 21:00:00 16,5 14,3 16,5 21,1 17,4 8 5 19 10 WNW 20 42 0,0
16.07.2018 20:00:00 17,0 14,1 18,1 21,2 17,5 13 7 27 14 W 20 10 0,0
16.07.2018 19:00:00 17,1 15,1 19,0 21,4 17,5 9 5 25 13 W 20 9 0,0
16.07.2018 18:00:00 16,9 15,9 17,1 21,5 17,5 9 5 22 12 W 20 0 0,0
16.07.2018 17:00:00 15,8 15,2 15,2 21,6 17,5 16 9 29 15 WNW 20 0 0,0
16.07.2018 16:00:00 14,4 13,8 13,9 21,7 17,5 8 4 16 9 W 1,2 0 1,4
16.07.2018 15:00:00 13,7 13,1 13,6 21,8 17,5 6 3 15 8 SW 0,8 0 4,5
16.07.2018 14:00:00 13,9 13,1 13,6 22,0 17,5 12 6 24 13 W 2,0 0 17,5
16.07.2018 13:00:00 14,0 12,7 13,7 22,1 17,6 15 8 35 19 W 1,9 0 12,6
16.07.2018 12:00:00 16,6 12,7 18,2 22,1 17,5 19 11 38 21 WSW 18 0 0,0
16.07.2018 11:00:00 19,2 14,7 21,1 22,2 17,5 7 4 20 11 WSW 20 0 0,0
16.07.2018 10:00:00 19,0 14,5 21,4 22,4 17,5 13 7 27 14 WSW 20 23 0,0
16.07.2018 09:00:00 19,2 12,5 19,2 22,4 17,4 5 3 13 7 SW 20 35 0,0
16.07.2018 08:00:00 17,3 12,4 16,8 22,6 17,5 7 4 16 8 W 20 34 0,0
16.07.2018 07:00:00 16,7 11,6 14,2 22,6 17,4 5 3 16 9 E 20 14 0,0
16.07.2018 06:00:00 16,8 11,3 14,7 22,7 17,4 6 3 13 7 E 19 0 0,0
16.07.2018 05:00:00 17,4 11,4 15,0 22,7 17,5 4 2 8 5 E 20 0 0,0
16.07.2018 04:00:00 17,9 11,7 16,5 22,7 17,5 6 4 17 9 ESE 20 0 0,0
16.07.2018 03:00:00 18,5 11,6 17,2 22,7 17,4 3 2 21 11 SE 20 0 0,0
16.07.2018 02:00:00 18,6 11,7 17,3 22,6 17,5 8 4 16 9 ENE 20 0 0,0
16.07.2018 01:00:00 19,1 11,9 17,4 22,5 17,4 9 5 14 8 E 20 0 0,0
16.07.2018 00:00:00 19,8 12,1 17,3 22,4 17,4 9 5 13 7 ENE 20 0 0,0
15.07.2018 23:00:00 21,4 12,5 18,4 22,3 17,4 4 2 16 9 E 20 0 0,0
15.07.2018 22:00:00 21,2 12,1 17,3 22,1 17,4 6 4 14 8 NNW 20 0 0,0
15.07.2018 21:00:00 24,2 10,1 20,6 21,9 17,5 6 3 19 11 NNW 20 47 0,0
15.07.2018 20:00:00 27,2 8,1 31,2 21,7 17,4 11 6 22 12 WNW 20 60 0,0
15.07.2018 19:00:00 28,7 7,3 33,9 21,5 17,4 12 6 28 15 W 20 60 0,0
15.07.2018 18:00:00 29,3 8,9 35,1 21,4 17,4 13 7 31 17 WSW 19 60 0,0
15.07.2018 17:00:00 29,5 6,8 35,9 21,4 17,5 14 7 28 15 W 20 60 0,0
15.07.2018 16:00:00 29,1 8,7 36,0 21,3 17,4 9 5 28 15 WSW 20 60 0,0
15.07.2018 15:00:00 29,1 7,1 35,0 21,4 17,4 11 6 24 13 WNW 20 60 0,0
15.07.2018 14:00:00 27,3 9,6 34,2 21,4 17,4 8 5 18 10 SW 20 60 0,0
15.07.2018 13:00:00 25,7 12,2 32,4 21,5 17,4 7 4 18 10 WSW 20 58 0,0
15.07.2018 12:00:00 23,5 13,7 25,5 21,7 17,5 4 2 9 5 SW 20 17 0,0
15.07.2018 11:00:00 20,8 14,0 23,1 21,7 17,4 6 4 10 6 W 20 17 0,0
15.07.2018 10:00:00 20,6 15,2 22,6 21,9 17,4 4 2 10 6 ESE 20 60 0,0
15.07.2018 09:00:00 18,4 14,3 16,3 22,0 17,4 5 3 13 7 E 20 60 0,0
15.07.2018 08:00:00 15,7 14,1 13,8 22,1 17,4 9 5 17 9 ENE 20 33 0,2
15.07.2018 07:00:00 14,4 13,4 13,7 22,2 17,4 11 6 17 9 E 20 0 0,0
15.07.2018 06:00:00 14,6 13,5 13,8 22,3 17,4 5 3 32 17 SSE 14 0 1,4
15.07.2018 05:00:00 15,6 12,2 14,1 22,3 17,4 3 2 10 6 ESE 12 0 0,6
15.07.2018 04:00:00 16,3 11,0 14,4 22,4 17,4 8 4 13 7 ESE 20 0 0,0
15.07.2018 03:00:00 16,1 11,3 15,0 22,3 17,4 9 5 13 7 ESE 20 0 0,0
15.07.2018 02:00:00 17,2 11,0 15,8 22,3 17,4 8 5 14 8 E 20 0 0,0
15.07.2018 01:00:00 18,0 10,8 16,3 22,2 17,4 9 5 13 7 ESE 20 0 0,0
15.07.2018 00:00:00 19,0 11,1 17,0 22,1 17,3 8 5 13 7 E 20 0 0,0
14.07.2018 23:00:00 20,3 11,5 17,4 22,0 17,4 8 4 15 8 E 20 0 0,0
14.07.2018 22:00:00 21,3 11,9 17,2 21,9 17,4 0 0 13 7 N 13 4 0,0
14.07.2018 21:00:00 24,7 12,3 22,7 21,8 17,3 5 3 18 10 NW 20 60 0,0
14.07.2018 20:00:00 27,4 11,8 31,6 21,7 17,4 10 5 23 12 W 19 60 0,0
14.07.2018 19:00:00 28,4 11,0 31,1 21,7 17,4 14 8 27 14 W 20 60 0,0
14.07.2018 18:00:00 28,7 10,4 31,1 21,7 17,4 11 6 25 14 W 20 57 0,0
14.07.2018 17:00:00 28,2 10,4 33,2 21,7 17,3 13 7 24 13 W 19 51 0,0
14.07.2018 16:00:00 26,6 9,9 30,8 21,7 17,3 9 5 17 9 W 20 53 0,0
14.07.2018 15:00:00 24,5 11,8 28,1 21,8 17,3 6 4 12 7 WSW 20 12 0,0
14.07.2018 14:00:00 21,9 14,3 22,5 21,9 17,3 3 2 9 5 S 20 2 0,0
14.07.2018 13:00:00 19,9 14,5 18,7 22,0 17,3 5 3 14 8 NE 20 0 0,0
14.07.2018 12:00:00 18,8 15,1 16,9 22,2 17,3 3 2 22 12 ESE 20 0 0,6
14.07.2018 11:00:00 19,7 13,8 17,6 22,3 17,5 9 5 16 9 E 14 0 0,0
14.07.2018 10:00:00 20,0 12,7 19,1 22,4 17,3 2 1 11 6 NNE 20 0 0,0
14.07.2018 09:00:00 17,0 12,5 18,0 22,5 17,3 3 2 11 6 N 20 7 0,0
14.07.2018 08:00:00 17,3 12,0 13,9 22,6 17,4 10 5 14 7 SE 20 60 0,0
14.07.2018 07:00:00 15,6 12,2 13,8 22,7 17,3 5 3 12 7 ENE 20 4 0,0
14.07.2018 06:00:00 15,9 11,3 14,6 22,8 17,3 7 4 10 6 ESE 20 0 0,0
14.07.2018 05:00:00 16,9 11,4 15,3 22,8 17,3 8 4 20 11 ENE 20 0 0,0
14.07.2018 04:00:00 16,0 10,3 15,0 22,9 17,3 8 4 16 9 ENE 20 0 0,0
14.07.2018 03:00:00 16,0 10,3 15,1 22,9 17,3 4 2 14 8 W 20 0 0,0
14.07.2018 02:00:00 16,3 10,2 15,6 22,8 17,3 11 6 16 8 SE 20 0 0,0
14.07.2018 01:00:00 17,2 10,3 15,8 22,7 17,3 8 4 12 7 ESE 20 0 0,0
14.07.2018 00:00:00 18,3 9,9 16,5 22,6 17,3 6 4 11 6 ESE 20 0 0,0
13.07.2018 23:00:00 19,7 9,8 17,0 22,4 17,3 6 3 9 5 ESE 20 0 0,0
13.07.2018 22:00:00 20,0 9,5 16,2 22,2 17,3 3 1 9 5 S 4,7 0 0,0
13.07.2018 21:00:00 22,1 10,3 20,1 22,0 17,3 5 3 15 8 WNW 20 0 0,0
13.07.2018 20:00:00 24,2 9,7 25,0 21,8 17,3 9 5 22 12 SW 20 30 0,0
13.07.2018 19:00:00 27,1 9,4 31,7 21,6 17,3 11 6 29 16 W 20 60 0,0
13.07.2018 18:00:00 27,4 9,7 34,1 21,5 17,3 16 9 30 16 W 20 57 0,0
13.07.2018 17:00:00 27,4 11,0 29,9 21,4 17,3 14 8 29 16 W 20 50 0,0
13.07.2018 16:00:00 28,2 10,4 35,1 21,4 17,3 11 6 29 16 W 20 60 0,0
13.07.2018 15:00:00 26,9 11,8 32,6 21,4 17,3 12 6 28 15 W 20 38 0,0
13.07.2018 14:00:00 26,9 10,6 30,1 21,5 17,3 16 9 29 16 WNW 20 48 0,0
13.07.2018 13:00:00 25,2 9,5 30,6 21,6 17,3 9 5 23 12 WSW 20 57 0,0
13.07.2018 12:00:00 24,6 8,5 28,8 21,7 17,2 10 5 17 9 WSW 20 56 0,0
13.07.2018 11:00:00 22,6 10,1 24,9 21,8 17,2 8 4 13 7 W 19 53 0,0
13.07.2018 10:00:00 20,4 8,7 22,2 22,0 17,3 5 3 10 5 SE 20 60 0,0
13.07.2018 09:00:00 16,9 9,1 15,4 22,2 17,3 5 3 10 6 ESE 20 60 0,0
13.07.2018 08:00:00 13,3 7,5 10,6 22,3 17,3 6 3 12 7 ESE 20 60 0,0
13.07.2018 07:00:00 11,0 6,9 10,0 22,4 17,3 6 3 14 8 E 20 5 0,0
13.07.2018 06:00:00 11,2 6,9 10,0 22,5 17,2 9 5 13 7 SE 20 0 0,0
13.07.2018 05:00:00 11,7 7,0 10,6 22,6 17,3 10 5 13 7 ESE 20 0 0,0
13.07.2018 04:00:00 12,2 7,1 11,0 22,6 17,3 8 4 13 7 ESE 20 0 0,0
13.07.2018 03:00:00 12,6 7,5 11,5 22,6 17,2 10 6 14 8 ESE 20 0 0,0
13.07.2018 02:00:00 13,6 7,6 9,6 22,6 17,3 9 5 13 7 ESE 20 0 0,0
13.07.2018 01:00:00 14,7 7,5 13,3 22,5 17,3 9 5 13 7 ESE 20 0 0,0
13.07.2018 00:00:00 16,2 8,2 12,2 22,4 17,2 8 4 10 6 SE 20 0 0,0
12.07.2018 23:00:00 16,8 8,0 12,0 22,2 17,3 4 2 9 5 W 20 0 0,0
12.07.2018 22:00:00 17,7 8,5 13,0 22,1 17,2 4 2 10 5 NW 20 5 0,0
12.07.2018 21:00:00 21,3 7,1 20,5 21,8 17,2 6 3 17 9 W 20 60 0,0
12.07.2018 20:00:00 23,6 5,5 26,2 21,7 17,2 11 6 25 13 W 18 53 0,0
12.07.2018 19:00:00 24,3 6,5 30,0 21,5 17,2 14 7 26 14 W 20 60 0,0
12.07.2018 18:00:00 25,7 7,3 32,9 21,4 17,1 14 7 30 16 WSW 18 60 0,0
12.07.2018 17:00:00 25,4 5,6 32,5 21,3 17,2 16 9 33 18 W 20 60 0,0
12.07.2018 16:00:00 25,6 2,3 34,0 21,3 17,2 13 7 28 15 WSW 20 60 0,0
12.07.2018 15:00:00 25,3 6,5 26,6 21,3 17,2 11 6 29 15 WNW 20 58 0,0
12.07.2018 14:00:00 22,5 5,4 26,7 21,4 17,2 13 7 26 14 W 20 28 0,0
12.07.2018 13:00:00 22,4 7,0 27,1 21,5 17,2 11 6 22 12 SW 20 29 0,0
12.07.2018 12:00:00 22,9 3,9 28,0 21,7 17,2 10 5 17 9 SW 20 60 0,0
12.07.2018 11:00:00 20,9 8,5 27,4 21,8 17,2 9 5 18 10 S 20 60 0,0
12.07.2018 10:00:00 18,6 8,3 22,9 22,0 17,2 3 2 9 5 SW 20 60 0,0
12.07.2018 09:00:00 16,1 8,1 14,6 22,2 17,2 5 3 10 5 E 20 51 0,0
12.07.2018 08:00:00 13,6 8,0 9,5 22,3 17,2 6 4 16 9 ESE 20 60 0,0
12.07.2018 07:00:00 10,6 7,5 8,6 22,5 17,2 6 3 14 8 E 20 7 0,0
12.07.2018 06:00:00 10,7 7,6 7,7 22,6 17,2 8 5 14 8 ENE 20 0 0,0
12.07.2018 05:00:00 11,0 7,7 9,2 22,7 17,2 9 5 15 8 ENE 20 0 0,0
12.07.2018 04:00:00 11,3 7,6 9,0 22,7 17,2 7 4 16 9 ENE 20 0 0,0
12.07.2018 03:00:00 12,0 7,7 10,6 22,7 17,2 10 5 15 8 E 20 0 0,0
12.07.2018 02:00:00 12,6 7,9 10,6 22,7 17,2 7 4 16 9 E 20 0 0,0
12.07.2018 01:00:00 13,7 7,9 9,6 22,7 17,2 6 3 11 6 ENE 20 0 0,0
12.07.2018 00:00:00 14,6 8,3 9,2 22,5 17,2 6 3 8 5 NE 20 0 0,0
11.07.2018 23:00:00 16,2 8,2 14,4 22,3 17,1 8 5 21 12 E 20 0 0,0
11.07.2018 22:00:00 17,0 7,9 14,8 22,2 17,2 9 5 24 13 ENE 20 6 0,0
11.07.2018 21:00:00 19,6 7,3 18,7 21,9 17,1 9 5 26 14 N 20 60 0,0
11.07.2018 20:00:00 23,3 3,8 27,9 21,7 17,1 14 8 30 16 NW 20 60 0,0
11.07.2018 19:00:00 24,1 3,9 30,7 21,5 17,1 16 9 33 18 NW 20 60 0,0
11.07.2018 18:00:00 24,7 3,9 31,8 21,4 17,1 16 8 34 19 WNW 20 60 0,0
11.07.2018 17:00:00 24,9 3,5 32,2 21,3 17,2 19 10 35 19 NNW 20 60 0,0
11.07.2018 16:00:00 25,2 4,3 31,6 21,3 17,2 13 7 30 16 WNW 19 60 0,0
11.07.2018 15:00:00 23,2 3,2 31,1 21,3 17,1 16 9 35 19 N 20 60 0,0
11.07.2018 14:00:00 22,2 1,8 30,0 21,3 17,1 16 9 29 16 NNW 20 60 0,0
11.07.2018 13:00:00 21,9 4,4 28,5 21,5 17,1 14 7 32 18 NNW 20 60 0,0
11.07.2018 12:00:00 19,7 5,3 26,6 21,6 17,1 9 5 27 15 N 20 60 0,0
11.07.2018 11:00:00 18,5 6,7 23,2 21,8 17,1 15 8 28 15 N 20 60 0,0
11.07.2018 10:00:00 16,8 6,6 21,1 21,9 17,1 13 7 29 15 NNE 20 60 0,0
11.07.2018 09:00:00 15,0 7,8 16,0 22,1 17,1 10 5 38 20 NNE 20 60 0,0
11.07.2018 08:00:00 13,4 9,4 9,8 22,3 17,1 4 2 13 7 W 20 60 0,0
11.07.2018 07:00:00 11,0 9,3 8,3 22,4 17,2 5 3 10 5 SSW 20 7 0,0
11.07.2018 06:00:00 12,0 9,2 8,5 22,5 17,1 0 0 14 8 N 20 0 0,0

tt = Température de l'air
td = dewpoint
tt 5cm = Température de l'air 5cm
tt -20cm = Température de l'air -20cm
tt -100cm = Température de l'air -100cm
ff = Vitesse du vent
fx = gusts
dd = Direction du vent
vv = visibility
sd = Ensoleillement
rr = Quantités de précipitations

stations d'obs. à proximité